sensor_id;sensor_type;location;lat;lon;timestamp;temperature;humidity
40291;DHT22;26000;48.304;13.626;2023-02-19T00:01:39;11.70;99.90
40291;DHT22;26000;48.304;13.626;2023-02-19T00:04:08;11.80;99.90
40291;DHT22;26000;48.304;13.626;2023-02-19T00:06:35;11.90;99.90
40291;DHT22;26000;48.304;13.626;2023-02-19T00:09:01;11.80;99.90
40291;DHT22;26000;48.304;13.626;2023-02-19T00:11:30;11.80;99.90
40291;DHT22;26000;48.304;13.626;2023-02-19T00:13:57;11.90;99.90
40291;DHT22;26000;48.304;13.626;2023-02-19T00:18:49;11.80;99.90
40291;DHT22;26000;48.304;13.626;2023-02-19T00:21:15;11.90;99.90
40291;DHT22;26000;48.304;13.626;2023-02-19T00:23:41;12.00;99.90
40291;DHT22;26000;48.304;13.626;2023-02-19T00:26:11;12.00;99.90
40291;DHT22;26000;48.304;13.626;2023-02-19T00:28:38;11.90;99.90
40291;DHT22;26000;48.304;13.626;2023-02-19T00:31:30;11.90;99.90
40291;DHT22;26000;48.304;13.626;2023-02-19T00:33:59;11.90;99.90
40291;DHT22;26000;48.304;13.626;2023-02-19T00:36:25;11.80;99.90
40291;DHT22;26000;48.304;13.626;2023-02-19T00:38:52;11.70;99.90
40291;DHT22;26000;48.304;13.626;2023-02-19T00:41:18;11.70;99.90
40291;DHT22;26000;48.304;13.626;2023-02-19T00:43:53;11.70;99.90
40291;DHT22;26000;48.304;13.626;2023-02-19T00:48:48;11.70;99.90
40291;DHT22;26000;48.304;13.626;2023-02-19T00:51:15;11.60;99.90
40291;DHT22;26000;48.304;13.626;2023-02-19T00:53:41;11.60;99.90
40291;DHT22;26000;48.304;13.626;2023-02-19T00:56:07;11.60;99.90
40291;DHT22;26000;48.304;13.626;2023-02-19T00:58:33;11.60;99.90
40291;DHT22;26000;48.304;13.626;2023-02-19T01:00:59;11.60;99.90
40291;DHT22;26000;48.304;13.626;2023-02-19T01:03:25;11.60;99.90
40291;DHT22;26000;48.304;13.626;2023-02-19T01:05:51;11.50;99.90
40291;DHT22;26000;48.304;13.626;2023-02-19T01:08:17;11.50;99.90
40291;DHT22;26000;48.304;13.626;2023-02-19T01:10:43;11.50;99.90
40291;DHT22;26000;48.304;13.626;2023-02-19T01:13:09;11.60;99.90
40291;DHT22;26000;48.304;13.626;2023-02-19T01:15:35;11.50;99.90
40291;DHT22;26000;48.304;13.626;2023-02-19T01:18:01;11.50;99.90
40291;DHT22;26000;48.304;13.626;2023-02-19T01:20:26;11.40;99.90
40291;DHT22;26000;48.304;13.626;2023-02-19T01:22:52;11.40;99.90
40291;DHT22;26000;48.304;13.626;2023-02-19T01:25:18;11.50;99.90
40291;DHT22;26000;48.304;13.626;2023-02-19T01:27:43;11.50;99.90
40291;DHT22;26000;48.304;13.626;2023-02-19T01:30:10;11.50;99.90
40291;DHT22;26000;48.304;13.626;2023-02-19T01:32:36;11.30;99.90
40291;DHT22;26000;48.304;13.626;2023-02-19T01:35:01;11.30;99.90
40291;DHT22;26000;48.304;13.626;2023-02-19T01:37:27;11.30;99.90
40291;DHT22;26000;48.304;13.626;2023-02-19T01:39:53;11.30;99.90
40291;DHT22;26000;48.304;13.626;2023-02-19T01:42:18;11.30;99.90
40291;DHT22;26000;48.304;13.626;2023-02-19T01:47:10;11.30;99.90
40291;DHT22;26000;48.304;13.626;2023-02-19T01:49:42;11.30;99.90
40291;DHT22;26000;48.304;13.626;2023-02-19T01:54:51;11.20;99.90
40291;DHT22;26000;48.304;13.626;2023-02-19T01:57:24;11.20;99.90
40291;DHT22;26000;48.304;13.626;2023-02-19T01:59:54;11.20;99.90
40291;DHT22;26000;48.304;13.626;2023-02-19T02:02:22;11.20;99.90
40291;DHT22;26000;48.304;13.626;2023-02-19T02:04:49;11.20;99.90
40291;DHT22;26000;48.304;13.626;2023-02-19T02:07:15;11.20;99.90
40291;DHT22;26000;48.304;13.626;2023-02-19T02:10:00;11.20;99.90
40291;DHT22;26000;48.304;13.626;2023-02-19T02:12:44;11.20;99.90
40291;DHT22;26000;48.304;13.626;2023-02-19T02:15:10;11.30;99.90
40291;DHT22;26000;48.304;13.626;2023-02-19T02:17:41;11.30;99.90
40291;DHT22;26000;48.304;13.626;2023-02-19T02:20:32;11.20;99.90
40291;DHT22;26000;48.304;13.626;2023-02-19T02:23:05;11.20;99.90
40291;DHT22;26000;48.304;13.626;2023-02-19T02:31:21;11.20;99.90
40291;DHT22;26000;48.304;13.626;2023-02-19T02:34:02;11.10;99.90
40291;DHT22;26000;48.304;13.626;2023-02-19T02:36:37;11.10;99.90
40291;DHT22;26000;48.304;13.626;2023-02-19T02:39:07;11.20;99.90
40291;DHT22;26000;48.304;13.626;2023-02-19T02:41:39;11.20;99.90
40291;DHT22;26000;48.304;13.626;2023-02-19T02:44:05;11.10;99.90
40291;DHT22;26000;48.304;13.626;2023-02-19T02:46:34;11.10;99.90
40291;DHT22;26000;48.304;13.626;2023-02-19T02:49:30;11.20;99.90
40291;DHT22;26000;48.304;13.626;2023-02-19T02:51:56;11.10;99.90
40291;DHT22;26000;48.304;13.626;2023-02-19T02:54:26;11.10;99.90
40291;DHT22;26000;48.304;13.626;2023-02-19T02:57:13;11.10;99.90
40291;DHT22;26000;48.304;13.626;2023-02-19T02:59:40;11.10;99.90
40291;DHT22;26000;48.304;13.626;2023-02-19T03:02:14;11.10;99.90
40291;DHT22;26000;48.304;13.626;2023-02-19T03:07:34;11.00;99.90
40291;DHT22;26000;48.304;13.626;2023-02-19T03:10:02;11.10;99.90
40291;DHT22;26000;48.304;13.626;2023-02-19T03:12:31;11.00;99.90
40291;DHT22;26000;48.304;13.626;2023-02-19T03:15:16;11.10;99.90
40291;DHT22;26000;48.304;13.626;2023-02-19T03:18:04;11.00;99.90
40291;DHT22;26000;48.304;13.626;2023-02-19T03:20:52;11.00;99.90
40291;DHT22;26000;48.304;13.626;2023-02-19T03:23:22;11.10;99.90
40291;DHT22;26000;48.304;13.626;2023-02-19T03:26:10;11.10;99.90
40291;DHT22;26000;48.304;13.626;2023-02-19T03:28:38;11.10;99.90
40291;DHT22;26000;48.304;13.626;2023-02-19T03:31:25;11.10;99.90
40291;DHT22;26000;48.304;13.626;2023-02-19T03:33:58;11.10;99.90
40291;DHT22;26000;48.304;13.626;2023-02-19T03:36:29;11.10;99.90
40291;DHT22;26000;48.304;13.626;2023-02-19T03:39:07;11.20;99.90
40291;DHT22;26000;48.304;13.626;2023-02-19T03:41:50;11.30;99.90
40291;DHT22;26000;48.304;13.626;2023-02-19T03:44:26;11.30;99.90
40291;DHT22;26000;48.304;13.626;2023-02-19T03:49:31;11.20;99.90
40291;DHT22;26000;48.304;13.626;2023-02-19T03:52:20;11.10;99.90
40291;DHT22;26000;48.304;13.626;2023-02-19T03:55:16;11.10;99.90
40291;DHT22;26000;48.304;13.626;2023-02-19T03:57:49;11.10;99.90
40291;DHT22;26000;48.304;13.626;2023-02-19T04:00:17;11.10;99.90
40291;DHT22;26000;48.304;13.626;2023-02-19T04:02:57;11.00;99.90
40291;DHT22;26000;48.304;13.626;2023-02-19T04:05:28;11.00;99.90
40291;DHT22;26000;48.304;13.626;2023-02-19T04:10:40;10.90;99.90
40291;DHT22;26000;48.304;13.626;2023-02-19T04:13:19;10.90;99.90
40291;DHT22;26000;48.304;13.626;2023-02-19T04:15:47;11.00;99.90
40291;DHT22;26000;48.304;13.626;2023-02-19T04:18:17;10.90;99.90
40291;DHT22;26000;48.304;13.626;2023-02-19T04:20:45;10.90;99.90
40291;DHT22;26000;48.304;13.626;2023-02-19T04:23:12;11.00;99.90
40291;DHT22;26000;48.304;13.626;2023-02-19T04:25:41;11.00;99.90
40291;DHT22;26000;48.304;13.626;2023-02-19T04:28:08;11.00;99.90
40291;DHT22;26000;48.304;13.626;2023-02-19T04:30:34;11.00;99.90
40291;DHT22;26000;48.304;13.626;2023-02-19T04:32:59;10.90;99.90
40291;DHT22;26000;48.304;13.626;2023-02-19T04:35:25;10.90;99.90
40291;DHT22;26000;48.304;13.626;2023-02-19T04:37:51;10.90;99.90
40291;DHT22;26000;48.304;13.626;2023-02-19T04:40:16;10.90;99.90
40291;DHT22;26000;48.304;13.626;2023-02-19T04:42:42;10.90;99.90
40291;DHT22;26000;48.304;13.626;2023-02-19T04:45:07;10.90;99.90
40291;DHT22;26000;48.304;13.626;2023-02-19T04:47:33;10.90;99.90
40291;DHT22;26000;48.304;13.626;2023-02-19T04:49:59;10.90;99.90
40291;DHT22;26000;48.304;13.626;2023-02-19T04:52:24;10.70;99.90
40291;DHT22;26000;48.304;13.626;2023-02-19T04:54:50;10.80;99.90
40291;DHT22;26000;48.304;13.626;2023-02-19T04:57:15;10.80;99.90
40291;DHT22;26000;48.304;13.626;2023-02-19T04:59:41;10.80;99.90
40291;DHT22;26000;48.304;13.626;2023-02-19T05:02:06;10.80;99.90
40291;DHT22;26000;48.304;13.626;2023-02-19T05:04:32;10.80;99.90
40291;DHT22;26000;48.304;13.626;2023-02-19T05:06:58;10.80;99.90
40291;DHT22;26000;48.304;13.626;2023-02-19T05:09:23;10.70;99.90
40291;DHT22;26000;48.304;13.626;2023-02-19T05:11:49;10.70;99.90
40291;DHT22;26000;48.304;13.626;2023-02-19T05:14:14;10.80;99.90
40291;DHT22;26000;48.304;13.626;2023-02-19T05:16:41;10.80;99.90
40291;DHT22;26000;48.304;13.626;2023-02-19T05:19:10;10.70;99.90
40291;DHT22;26000;48.304;13.626;2023-02-19T05:21:36;10.70;99.90
40291;DHT22;26000;48.304;13.626;2023-02-19T05:24:02;10.60;99.90
40291;DHT22;26000;48.304;13.626;2023-02-19T05:26:27;10.60;99.90
40291;DHT22;26000;48.304;13.626;2023-02-19T05:28:55;10.50;99.90
40291;DHT22;26000;48.304;13.626;2023-02-19T05:31:22;10.60;99.90
40291;DHT22;26000;48.304;13.626;2023-02-19T05:33:47;10.60;99.90
40291;DHT22;26000;48.304;13.626;2023-02-19T05:36:16;10.50;99.90
40291;DHT22;26000;48.304;13.626;2023-02-19T05:38:42;10.50;99.90
40291;DHT22;26000;48.304;13.626;2023-02-19T05:41:21;10.40;99.90
40291;DHT22;26000;48.304;13.626;2023-02-19T05:43:48;10.50;99.90
40291;DHT22;26000;48.304;13.626;2023-02-19T05:46:16;10.50;99.90
40291;DHT22;26000;48.304;13.626;2023-02-19T05:48:42;10.50;99.90
40291;DHT22;26000;48.304;13.626;2023-02-19T05:51:10;10.50;99.90
40291;DHT22;26000;48.304;13.626;2023-02-19T05:53:36;10.40;99.90
40291;DHT22;26000;48.304;13.626;2023-02-19T05:56:02;10.30;99.90
40291;DHT22;26000;48.304;13.626;2023-02-19T05:58:28;10.30;99.90
40291;DHT22;26000;48.304;13.626;2023-02-19T06:00:54;10.30;99.90
40291;DHT22;26000;48.304;13.626;2023-02-19T06:03:20;10.30;99.90
40291;DHT22;26000;48.304;13.626;2023-02-19T06:05:46;10.30;99.90
40291;DHT22;26000;48.304;13.626;2023-02-19T06:08:13;10.30;99.90
40291;DHT22;26000;48.304;13.626;2023-02-19T06:10:39;10.30;99.90
40291;DHT22;26000;48.304;13.626;2023-02-19T06:13:09;10.30;99.90
40291;DHT22;26000;48.304;13.626;2023-02-19T06:15:35;10.30;99.90
40291;DHT22;26000;48.304;13.626;2023-02-19T06:18:02;10.30;99.90
40291;DHT22;26000;48.304;13.626;2023-02-19T06:20:28;10.40;99.90
40291;DHT22;26000;48.304;13.626;2023-02-19T06:22:54;10.40;99.90
40291;DHT22;26000;48.304;13.626;2023-02-19T06:25:19;10.30;99.90
40291;DHT22;26000;48.304;13.626;2023-02-19T06:27:45;10.30;99.90
40291;DHT22;26000;48.304;13.626;2023-02-19T06:30:11;10.40;99.90
40291;DHT22;26000;48.304;13.626;2023-02-19T06:32:37;10.40;99.90
40291;DHT22;26000;48.304;13.626;2023-02-19T06:35:03;10.40;99.90
40291;DHT22;26000;48.304;13.626;2023-02-19T06:37:29;10.30;99.90
40291;DHT22;26000;48.304;13.626;2023-02-19T06:39:55;10.30;99.90
40291;DHT22;26000;48.304;13.626;2023-02-19T06:42:20;10.40;99.90
40291;DHT22;26000;48.304;13.626;2023-02-19T06:44:46;10.50;99.90
40291;DHT22;26000;48.304;13.626;2023-02-19T06:47:11;10.50;99.90
40291;DHT22;26000;48.304;13.626;2023-02-19T06:49:40;10.50;99.90
40291;DHT22;26000;48.304;13.626;2023-02-19T06:52:06;10.60;99.90
40291;DHT22;26000;48.304;13.626;2023-02-19T06:54:31;10.60;99.90
40291;DHT22;26000;48.304;13.626;2023-02-19T06:56:58;10.60;99.90
40291;DHT22;26000;48.304;13.626;2023-02-19T06:59:24;10.60;99.90
40291;DHT22;26000;48.304;13.626;2023-02-19T07:01:50;10.70;99.90
40291;DHT22;26000;48.304;13.626;2023-02-19T07:04:16;10.60;99.90
40291;DHT22;26000;48.304;13.626;2023-02-19T07:06:42;10.60;99.90
40291;DHT22;26000;48.304;13.626;2023-02-19T07:09:08;10.60;99.90
40291;DHT22;26000;48.304;13.626;2023-02-19T07:11:34;10.60;99.90
40291;DHT22;26000;48.304;13.626;2023-02-19T07:14:02;10.60;99.90
40291;DHT22;26000;48.304;13.626;2023-02-19T07:16:28;10.60;99.90
40291;DHT22;26000;48.304;13.626;2023-02-19T07:18:58;10.60;99.90
40291;DHT22;26000;48.304;13.626;2023-02-19T07:21:24;10.60;99.90
40291;DHT22;26000;48.304;13.626;2023-02-19T07:23:51;10.70;99.90
40291;DHT22;26000;48.304;13.626;2023-02-19T07:26:18;10.70;99.90
40291;DHT22;26000;48.304;13.626;2023-02-19T07:28:45;10.70;99.90
40291;DHT22;26000;48.304;13.626;2023-02-19T07:31:12;10.80;99.90
40291;DHT22;26000;48.304;13.626;2023-02-19T07:33:44;10.80;99.90
40291;DHT22;26000;48.304;13.626;2023-02-19T07:36:11;10.90;99.90
40291;DHT22;26000;48.304;13.626;2023-02-19T07:38:37;10.90;99.90
40291;DHT22;26000;48.304;13.626;2023-02-19T07:41:04;11.00;99.90
40291;DHT22;26000;48.304;13.626;2023-02-19T07:43:32;11.00;99.90
40291;DHT22;26000;48.304;13.626;2023-02-19T07:46:01;11.00;99.90
40291;DHT22;26000;48.304;13.626;2023-02-19T07:48:26;11.00;99.90
40291;DHT22;26000;48.304;13.626;2023-02-19T07:50:53;11.00;99.90
40291;DHT22;26000;48.304;13.626;2023-02-19T07:53:20;11.00;99.90
40291;DHT22;26000;48.304;13.626;2023-02-19T07:55:46;11.00;99.90
40291;DHT22;26000;48.304;13.626;2023-02-19T07:58:11;11.10;99.90
40291;DHT22;26000;48.304;13.626;2023-02-19T08:00:38;11.00;99.90
40291;DHT22;26000;48.304;13.626;2023-02-19T08:03:04;11.00;99.90
40291;DHT22;26000;48.304;13.626;2023-02-19T08:05:32;10.90;99.90
40291;DHT22;26000;48.304;13.626;2023-02-19T08:07:59;10.90;99.90
40291;DHT22;26000;48.304;13.626;2023-02-19T08:10:25;10.90;99.90
40291;DHT22;26000;48.304;13.626;2023-02-19T08:13:14;10.90;99.90
40291;DHT22;26000;48.304;13.626;2023-02-19T08:15:52;11.00;99.90
40291;DHT22;26000;48.304;13.626;2023-02-19T08:18:20;10.90;99.90
40291;DHT22;26000;48.304;13.626;2023-02-19T08:20:46;11.00;99.90
40291;DHT22;26000;48.304;13.626;2023-02-19T08:23:13;11.10;99.90
40291;DHT22;26000;48.304;13.626;2023-02-19T08:25:39;11.10;99.90
40291;DHT22;26000;48.304;13.626;2023-02-19T08:28:05;11.10;99.90
40291;DHT22;26000;48.304;13.626;2023-02-19T08:30:33;11.00;99.90
40291;DHT22;26000;48.304;13.626;2023-02-19T08:32:59;11.00;99.90
40291;DHT22;26000;48.304;13.626;2023-02-19T08:35:26;10.90;99.90
40291;DHT22;26000;48.304;13.626;2023-02-19T08:37:55;10.90;99.90
40291;DHT22;26000;48.304;13.626;2023-02-19T08:40:21;10.80;99.90
40291;DHT22;26000;48.304;13.626;2023-02-19T08:42:46;10.70;99.90
40291;DHT22;26000;48.304;13.626;2023-02-19T08:45:12;10.60;99.90
40291;DHT22;26000;48.304;13.626;2023-02-19T08:47:38;10.60;99.90
40291;DHT22;26000;48.304;13.626;2023-02-19T08:50:05;10.60;99.90
40291;DHT22;26000;48.304;13.626;2023-02-19T08:52:32;10.60;99.90
40291;DHT22;26000;48.304;13.626;2023-02-19T08:54:57;10.70;99.90
40291;DHT22;26000;48.304;13.626;2023-02-19T08:57:24;10.70;99.90
40291;DHT22;26000;48.304;13.626;2023-02-19T08:59:49;10.70;99.90
40291;DHT22;26000;48.304;13.626;2023-02-19T09:02:15;10.70;99.90
40291;DHT22;26000;48.304;13.626;2023-02-19T09:04:41;10.70;99.90
40291;DHT22;26000;48.304;13.626;2023-02-19T09:07:07;10.70;99.90
40291;DHT22;26000;48.304;13.626;2023-02-19T09:09:38;10.80;99.90
40291;DHT22;26000;48.304;13.626;2023-02-19T09:12:08;10.80;99.90
40291;DHT22;26000;48.304;13.626;2023-02-19T09:14:35;10.90;99.90
40291;DHT22;26000;48.304;13.626;2023-02-19T09:17:01;10.90;99.90
40291;DHT22;26000;48.304;13.626;2023-02-19T09:19:28;11.00;99.90
40291;DHT22;26000;48.304;13.626;2023-02-19T09:21:54;11.10;99.90
40291;DHT22;26000;48.304;13.626;2023-02-19T09:24:19;11.10;99.90
40291;DHT22;26000;48.304;13.626;2023-02-19T09:26:48;11.30;99.90
40291;DHT22;26000;48.304;13.626;2023-02-19T09:29:15;11.50;99.90
40291;DHT22;26000;48.304;13.626;2023-02-19T09:31:40;11.50;99.90
40291;DHT22;26000;48.304;13.626;2023-02-19T09:34:06;11.40;99.90
40291;DHT22;26000;48.304;13.626;2023-02-19T09:36:32;11.40;99.90
40291;DHT22;26000;48.304;13.626;2023-02-19T09:38:58;11.40;99.90
40291;DHT22;26000;48.304;13.626;2023-02-19T09:41:34;11.30;99.90
40291;DHT22;26000;48.304;13.626;2023-02-19T09:44:03;11.30;99.90
40291;DHT22;26000;48.304;13.626;2023-02-19T09:51:46;11.80;99.90
40291;DHT22;26000;48.304;13.626;2023-02-19T09:54:23;12.20;99.90
40291;DHT22;26000;48.304;13.626;2023-02-19T09:56:50;12.40;99.90
40291;DHT22;26000;48.304;13.626;2023-02-19T10:02:23;12.60;99.90
40291;DHT22;26000;48.304;13.626;2023-02-19T10:04:49;12.60;99.90
40291;DHT22;26000;48.304;13.626;2023-02-19T10:07:21;12.60;99.90
40291;DHT22;26000;48.304;13.626;2023-02-19T10:09:56;12.50;99.90
40291;DHT22;26000;48.304;13.626;2023-02-19T10:12:28;12.40;99.90
40291;DHT22;26000;48.304;13.626;2023-02-19T10:15:07;12.40;99.90
40291;DHT22;26000;48.304;13.626;2023-02-19T10:17:34;12.40;99.90
40291;DHT22;26000;48.304;13.626;2023-02-19T10:20:02;12.40;99.90
40291;DHT22;26000;48.304;13.626;2023-02-19T10:22:30;12.50;99.90
40291;DHT22;26000;48.304;13.626;2023-02-19T10:24:57;12.70;99.90
40291;DHT22;26000;48.304;13.626;2023-02-19T10:27:26;12.70;99.90
40291;DHT22;26000;48.304;13.626;2023-02-19T10:29:53;12.70;99.90
40291;DHT22;26000;48.304;13.626;2023-02-19T10:32:21;12.50;99.90
40291;DHT22;26000;48.304;13.626;2023-02-19T10:35:11;12.40;99.90
40291;DHT22;26000;48.304;13.626;2023-02-19T10:37:45;12.30;99.90
40291;DHT22;26000;48.304;13.626;2023-02-19T10:40:16;12.20;99.90
40291;DHT22;26000;48.304;13.626;2023-02-19T10:42:51;12.20;99.90
40291;DHT22;26000;48.304;13.626;2023-02-19T10:45:18;12.10;99.90
40291;DHT22;26000;48.304;13.626;2023-02-19T10:47:46;12.20;99.90
40291;DHT22;26000;48.304;13.626;2023-02-19T10:50:23;12.40;99.90
40291;DHT22;26000;48.304;13.626;2023-02-19T10:52:54;12.50;99.90
40291;DHT22;26000;48.304;13.626;2023-02-19T10:55:27;12.80;99.90
40291;DHT22;26000;48.304;13.626;2023-02-19T10:57:54;13.00;99.90
40291;DHT22;26000;48.304;13.626;2023-02-19T11:00:26;13.30;99.90
40291;DHT22;26000;48.304;13.626;2023-02-19T11:03:21;13.20;99.90
40291;DHT22;26000;48.304;13.626;2023-02-19T11:05:58;13.30;99.90
40291;DHT22;26000;48.304;13.626;2023-02-19T11:08:24;13.40;99.90
40291;DHT22;26000;48.304;13.626;2023-02-19T11:10:50;13.40;99.90
40291;DHT22;26000;48.304;13.626;2023-02-19T11:13:24;13.60;99.90
40291;DHT22;26000;48.304;13.626;2023-02-19T11:15:53;13.70;99.90
40291;DHT22;26000;48.304;13.626;2023-02-19T11:18:26;14.00;99.90
40291;DHT22;26000;48.304;13.626;2023-02-19T11:21:04;14.10;99.90
40291;DHT22;26000;48.304;13.626;2023-02-19T11:23:42;14.10;99.90
40291;DHT22;26000;48.304;13.626;2023-02-19T11:26:21;14.30;99.90
40291;DHT22;26000;48.304;13.626;2023-02-19T11:31:29;14.30;99.90
40291;DHT22;26000;48.304;13.626;2023-02-19T11:33:58;14.10;99.90
40291;DHT22;26000;48.304;13.626;2023-02-19T11:38:52;13.60;99.90
40291;DHT22;26000;48.304;13.626;2023-02-19T11:41:28;13.40;99.90
40291;DHT22;26000;48.304;13.626;2023-02-19T11:54:50;11.70;99.90
40291;DHT22;26000;48.304;13.626;2023-02-19T12:00:22;11.80;99.90
40291;DHT22;26000;48.304;13.626;2023-02-19T12:06:14;11.80;99.90
40291;DHT22;26000;48.304;13.626;2023-02-19T12:16:58;11.90;99.90
40291;DHT22;26000;48.304;13.626;2023-02-19T12:19:48;12.00;99.90
40291;DHT22;26000;48.304;13.626;2023-02-19T12:22:36;12.20;99.90
40291;DHT22;26000;48.304;13.626;2023-02-19T12:34:21;12.60;99.90
40291;DHT22;26000;48.304;13.626;2023-02-19T12:44:42;13.10;99.90
40291;DHT22;26000;48.304;13.626;2023-02-19T12:47:18;13.30;99.90
40291;DHT22;26000;48.304;13.626;2023-02-19T12:49:53;13.30;99.90
40291;DHT22;26000;48.304;13.626;2023-02-19T12:52:27;13.30;99.90
40291;DHT22;26000;48.304;13.626;2023-02-19T12:55:00;13.30;99.90
40291;DHT22;26000;48.304;13.626;2023-02-19T12:57:32;13.10;99.90
40291;DHT22;26000;48.304;13.626;2023-02-19T13:00:02;13.00;99.90
40291;DHT22;26000;48.304;13.626;2023-02-19T13:03:18;12.90;99.90
40291;DHT22;26000;48.304;13.626;2023-02-19T13:08:46;12.50;99.90
40291;DHT22;26000;48.304;13.626;2023-02-19T13:11:18;12.40;99.90
40291;DHT22;26000;48.304;13.626;2023-02-19T13:14:23;12.30;99.90
40291;DHT22;26000;48.304;13.626;2023-02-19T13:16:49;12.30;99.90
40291;DHT22;26000;48.304;13.626;2023-02-19T13:19:16;12.20;99.90
40291;DHT22;26000;48.304;13.626;2023-02-19T13:21:43;12.20;99.90
40291;DHT22;26000;48.304;13.626;2023-02-19T13:24:33;12.20;99.90
40291;DHT22;26000;48.304;13.626;2023-02-19T13:27:32;12.20;99.90
40291;DHT22;26000;48.304;13.626;2023-02-19T13:30:52;12.20;99.90
40291;DHT22;26000;48.304;13.626;2023-02-19T13:36:11;12.30;99.90
40291;DHT22;26000;48.304;13.626;2023-02-19T13:38:39;12.30;99.90
40291;DHT22;26000;48.304;13.626;2023-02-19T13:41:28;12.40;99.90
40291;DHT22;26000;48.304;13.626;2023-02-19T13:43:58;12.30;99.90
40291;DHT22;26000;48.304;13.626;2023-02-19T13:46:39;12.20;99.90
40291;DHT22;26000;48.304;13.626;2023-02-19T13:51:55;12.20;99.90
40291;DHT22;26000;48.304;13.626;2023-02-19T13:57:27;12.00;99.90
40291;DHT22;26000;48.304;13.626;2023-02-19T13:59:47;12.00;99.90
40291;DHT22;26000;48.304;13.626;2023-02-19T14:05:07;12.10;99.90
40291;DHT22;26000;48.304;13.626;2023-02-19T14:07:36;12.00;99.90
40291;DHT22;26000;48.304;13.626;2023-02-19T14:10:10;12.00;99.90
40291;DHT22;26000;48.304;13.626;2023-02-19T14:12:36;11.90;99.90
40291;DHT22;26000;48.304;13.626;2023-02-19T14:17:49;11.90;99.90
40291;DHT22;26000;48.304;13.626;2023-02-19T14:30:58;11.80;99.90
40291;DHT22;26000;48.304;13.626;2023-02-19T14:33:31;11.80;99.90
40291;DHT22;26000;48.304;13.626;2023-02-19T14:39:20;11.80;99.90
40291;DHT22;26000;48.304;13.626;2023-02-19T14:41:58;11.70;99.90
40291;DHT22;26000;48.304;13.626;2023-02-19T14:45:00;11.60;99.90
40291;DHT22;26000;48.304;13.626;2023-02-19T14:47:23;11.70;99.90
40291;DHT22;26000;48.304;13.626;2023-02-19T14:49:59;11.70;99.90
40291;DHT22;26000;48.304;13.626;2023-02-19T14:52:26;11.60;99.90
40291;DHT22;26000;48.304;13.626;2023-02-19T14:57:27;11.50;99.90
40291;DHT22;26000;48.304;13.626;2023-02-19T14:59:58;11.50;99.90
40291;DHT22;26000;48.304;13.626;2023-02-19T15:02:26;11.50;99.90
40291;DHT22;26000;48.304;13.626;2023-02-19T15:04:52;11.60;99.90
40291;DHT22;26000;48.304;13.626;2023-02-19T15:07:22;11.60;99.90
40291;DHT22;26000;48.304;13.626;2023-02-19T15:09:54;11.60;99.90
40291;DHT22;26000;48.304;13.626;2023-02-19T15:12:29;11.60;99.90
40291;DHT22;26000;48.304;13.626;2023-02-19T15:14:59;11.60;99.90
40291;DHT22;26000;48.304;13.626;2023-02-19T15:17:29;11.60;99.90
40291;DHT22;26000;48.304;13.626;2023-02-19T15:19:57;11.50;99.90
40291;DHT22;26000;48.304;13.626;2023-02-19T15:22:25;11.60;99.90
40291;DHT22;26000;48.304;13.626;2023-02-19T15:24:53;11.50;99.90
40291;DHT22;26000;48.304;13.626;2023-02-19T15:27:21;11.50;99.90
40291;DHT22;26000;48.304;13.626;2023-02-19T15:29:49;11.40;99.90
40291;DHT22;26000;48.304;13.626;2023-02-19T15:32:18;11.50;99.90
40291;DHT22;26000;48.304;13.626;2023-02-19T15:35:01;11.50;99.90
40291;DHT22;26000;48.304;13.626;2023-02-19T15:37:34;11.50;99.90
40291;DHT22;26000;48.304;13.626;2023-02-19T15:40:03;11.40;99.90
40291;DHT22;26000;48.304;13.626;2023-02-19T15:42:33;11.50;99.90
40291;DHT22;26000;48.304;13.626;2023-02-19T15:47:46;11.40;99.90
40291;DHT22;26000;48.304;13.626;2023-02-19T15:50:50;11.40;99.90
40291;DHT22;26000;48.304;13.626;2023-02-19T15:53:21;11.40;99.90
40291;DHT22;26000;48.304;13.626;2023-02-19T16:01:03;11.30;99.90
40291;DHT22;26000;48.304;13.626;2023-02-19T16:03:32;11.30;99.90
40291;DHT22;26000;48.304;13.626;2023-02-19T16:06:01;11.30;99.90
40291;DHT22;26000;48.304;13.626;2023-02-19T16:08:34;11.30;99.90
40291;DHT22;26000;48.304;13.626;2023-02-19T16:11:19;11.30;99.90
40291;DHT22;26000;48.304;13.626;2023-02-19T16:13:47;11.20;99.90
40291;DHT22;26000;48.304;13.626;2023-02-19T16:18:50;11.20;99.90
40291;DHT22;26000;48.304;13.626;2023-02-19T16:21:20;11.10;99.90
40291;DHT22;26000;48.304;13.626;2023-02-19T16:23:49;11.10;99.90
40291;DHT22;26000;48.304;13.626;2023-02-19T16:26:16;11.10;99.90
40291;DHT22;26000;48.304;13.626;2023-02-19T16:28:42;11.10;99.90
40291;DHT22;26000;48.304;13.626;2023-02-19T16:31:12;11.20;99.90
40291;DHT22;26000;48.304;13.626;2023-02-19T16:33:42;11.10;99.90
40291;DHT22;26000;48.304;13.626;2023-02-19T16:36:34;11.10;99.90
40291;DHT22;26000;48.304;13.626;2023-02-19T16:41:32;11.00;99.90
40291;DHT22;26000;48.304;13.626;2023-02-19T16:43:59;11.00;99.90
40291;DHT22;26000;48.304;13.626;2023-02-19T16:46:31;11.00;99.90
40291;DHT22;26000;48.304;13.626;2023-02-19T16:48:57;10.80;99.90
40291;DHT22;26000;48.304;13.626;2023-02-19T16:51:25;10.80;99.90
40291;DHT22;26000;48.304;13.626;2023-02-19T16:53:51;11.00;99.90
40291;DHT22;26000;48.304;13.626;2023-02-19T16:56:18;10.90;99.90
40291;DHT22;26000;48.304;13.626;2023-02-19T16:58:46;10.80;99.90
40291;DHT22;26000;48.304;13.626;2023-02-19T17:01:12;10.80;99.90
40291;DHT22;26000;48.304;13.626;2023-02-19T17:03:38;10.90;99.90
40291;DHT22;26000;48.304;13.626;2023-02-19T17:06:04;10.90;99.90
40291;DHT22;26000;48.304;13.626;2023-02-19T17:08:31;10.80;99.90
40291;DHT22;26000;48.304;13.626;2023-02-19T17:11:03;10.70;99.90
40291;DHT22;26000;48.304;13.626;2023-02-19T17:13:29;10.70;99.90
40291;DHT22;26000;48.304;13.626;2023-02-19T17:15:55;10.70;99.90
40291;DHT22;26000;48.304;13.626;2023-02-19T17:18:21;10.80;99.90
40291;DHT22;26000;48.304;13.626;2023-02-19T17:20:50;10.80;99.90
40291;DHT22;26000;48.304;13.626;2023-02-19T17:23:18;10.80;99.90
40291;DHT22;26000;48.304;13.626;2023-02-19T17:25:44;10.70;99.90
40291;DHT22;26000;48.304;13.626;2023-02-19T17:28:09;10.70;99.90
40291;DHT22;26000;48.304;13.626;2023-02-19T17:30:35;10.70;99.90
40291;DHT22;26000;48.304;13.626;2023-02-19T17:33:00;10.70;99.90
40291;DHT22;26000;48.304;13.626;2023-02-19T17:35:26;10.80;99.90
40291;DHT22;26000;48.304;13.626;2023-02-19T17:37:52;10.80;99.90
40291;DHT22;26000;48.304;13.626;2023-02-19T17:40:31;10.90;99.90